首页
METAR-TAF:

METAR-TAF

机场 :

拉巴特-塞拉国际机场

拉巴特, 摩洛哥

纬度: 34-03N, 经度: 006-46W, 海拔: 84米

当前天气观测

该预报发布于24分钟前的20:00 UTC
风速5节,风向东转东北
温度 20°C
湿度 88%
气压 1019 hPa
能见度10公里或以上
1500米以下无云,无积雨云

METAR: GMME 202000Z 06005KT CAVOK 20/18 Q1019 NOSIG

时间: 21:24 (20:24 UTC)

预报

该预报发布于3小时和24分钟前的17:00 UTC
预报有效从20日的 18点(UTC)到 21日的 24点(UTC)
风速12节,风向
能见度10公里或以上
1500米以下无云,无积雨云
短暂存在
从 20日的 20点(UTC)到 21日的 02点(UTC)
风速7节,风向东转东北
能見度: 7000
几率 30%
从 21日的 02点(UTC)到 21日的 08点(UTC)
能見度: 4000
散云层高于600英尺
轻雾
成为
从 21日的 08点(UTC)到 21日的 12点(UTC)
风速4节,风向东北
能見度: 8000
短暂存在
从 21日的 12点(UTC)到 21日的 18点(UTC)
风速12节,风向
能见度10公里或以上
1500米以下无云,无积雨云

TAF: GMME 201700Z 2018/2124 36012KT CAVOK TEMPO 2020/2102 06007KT 7000 NSC PROB30 2102/2108 4000 BR SCT006 BECMG 2108/2112 04004KT 8000 NSW NSC TEMPO 2112/2118 36012KT CAVOK

超过4000个机场的气象观测和天气预报(METAR&TAF报告)。

可查询的气象台以黄色和红色小点在地图上表示。

将鼠标移到小点上方,可查看气象台名称。

然后点击查看天气观测和预报。

如需切换地图:点击带黑十字的绿色按钮放大地图;点击带横线的绿色按钮缩小地图;或者点击绿色箭头查看邻近地区的地图。


METAR-TAF: